sensor_id;sensor_type;location;lat;lon;timestamp;P1;durP1;ratioP1;P2;durP2;ratioP2
64894;SDS011;51588;53.702;10.208;2023-05-07T00:00:27;4.20;;;3.80;;
64894;SDS011;51588;53.702;10.208;2023-05-07T00:02:54;4.30;;;3.60;;
64894;SDS011;51588;53.702;10.208;2023-05-07T00:05:21;3.93;;;3.53;;
64894;SDS011;51588;53.702;10.208;2023-05-07T00:07:47;4.10;;;3.70;;
64894;SDS011;51588;53.702;10.208;2023-05-07T00:10:13;4.60;;;4.10;;
64894;SDS011;51588;53.702;10.208;2023-05-07T00:12:40;4.00;;;3.60;;
64894;SDS011;51588;53.702;10.208;2023-05-07T00:15:08;3.83;;;3.43;;
64894;SDS011;51588;53.702;10.208;2023-05-07T00:17:35;3.97;;;3.53;;
64894;SDS011;51588;53.702;10.208;2023-05-07T00:20:01;4.10;;;3.70;;
64894;SDS011;51588;53.702;10.208;2023-05-07T00:22:28;4.07;;;3.73;;
64894;SDS011;51588;53.702;10.208;2023-05-07T00:24:55;4.87;;;4.20;;
64894;SDS011;51588;53.702;10.208;2023-05-07T00:27:21;4.30;;;3.90;;
64894;SDS011;51588;53.702;10.208;2023-05-07T00:29:48;4.00;;;3.60;;
64894;SDS011;51588;53.702;10.208;2023-05-07T00:32:16;4.40;;;4.00;;
64894;SDS011;51588;53.702;10.208;2023-05-07T00:34:42;4.27;;;3.87;;
64894;SDS011;51588;53.702;10.208;2023-05-07T00:37:09;4.83;;;4.00;;
64894;SDS011;51588;53.702;10.208;2023-05-07T00:39:37;4.47;;;4.00;;
64894;SDS011;51588;53.702;10.208;2023-05-07T00:42:03;4.30;;;3.90;;
64894;SDS011;51588;53.702;10.208;2023-05-07T00:44:29;4.90;;;4.23;;
64894;SDS011;51588;53.702;10.208;2023-05-07T00:46:56;3.97;;;3.57;;
64894;SDS011;51588;53.702;10.208;2023-05-07T00:49:24;4.17;;;3.77;;
64894;SDS011;51588;53.702;10.208;2023-05-07T00:51:53;4.50;;;4.10;;
64894;SDS011;51588;53.702;10.208;2023-05-07T00:54:19;5.03;;;4.30;;
64894;SDS011;51588;53.702;10.208;2023-05-07T00:56:46;5.00;;;4.30;;
64894;SDS011;51588;53.702;10.208;2023-05-07T00:59:13;5.73;;;4.67;;
64894;SDS011;51588;53.702;10.208;2023-05-07T01:01:39;4.67;;;4.23;;
64894;SDS011;51588;53.702;10.208;2023-05-07T01:04:05;5.70;;;4.40;;
64894;SDS011;51588;53.702;10.208;2023-05-07T01:06:33;4.57;;;3.90;;
64894;SDS011;51588;53.702;10.208;2023-05-07T01:09:00;4.20;;;3.80;;
64894;SDS011;51588;53.702;10.208;2023-05-07T01:11:27;4.37;;;3.97;;
64894;SDS011;51588;53.702;10.208;2023-05-07T01:13:53;4.87;;;4.37;;
64894;SDS011;51588;53.702;10.208;2023-05-07T01:16:20;4.30;;;3.70;;
64894;SDS011;51588;53.702;10.208;2023-05-07T01:18:46;4.47;;;4.07;;
64894;SDS011;51588;53.702;10.208;2023-05-07T01:21:14;5.03;;;4.27;;
64894;SDS011;51588;53.702;10.208;2023-05-07T01:23:43;4.27;;;3.90;;
64894;SDS011;51588;53.702;10.208;2023-05-07T01:26:10;4.50;;;4.10;;
64894;SDS011;51588;53.702;10.208;2023-05-07T01:28:36;4.47;;;4.07;;
64894;SDS011;51588;53.702;10.208;2023-05-07T01:31:03;4.43;;;4.03;;
64894;SDS011;51588;53.702;10.208;2023-05-07T01:33:31;4.20;;;3.80;;
64894;SDS011;51588;53.702;10.208;2023-05-07T01:35:59;5.07;;;4.33;;
64894;SDS011;51588;53.702;10.208;2023-05-07T01:38:27;4.77;;;4.30;;
64894;SDS011;51588;53.702;10.208;2023-05-07T01:40:55;4.67;;;4.17;;
64894;SDS011;51588;53.702;10.208;2023-05-07T01:43:22;4.50;;;4.00;;
64894;SDS011;51588;53.702;10.208;2023-05-07T01:45:48;5.10;;;4.43;;
64894;SDS011;51588;53.702;10.208;2023-05-07T01:48:15;5.07;;;4.00;;
64894;SDS011;51588;53.702;10.208;2023-05-07T01:50:41;5.53;;;4.10;;
64894;SDS011;51588;53.702;10.208;2023-05-07T01:53:08;4.60;;;4.13;;
64894;SDS011;51588;53.702;10.208;2023-05-07T01:55:35;4.70;;;4.13;;
64894;SDS011;51588;53.702;10.208;2023-05-07T01:58:03;5.67;;;4.60;;
64894;SDS011;51588;53.702;10.208;2023-05-07T02:00:29;5.27;;;4.40;;
64894;SDS011;51588;53.702;10.208;2023-05-07T02:02:56;5.03;;;4.20;;
64894;SDS011;51588;53.702;10.208;2023-05-07T02:05:22;4.80;;;4.30;;
64894;SDS011;51588;53.702;10.208;2023-05-07T02:07:49;5.83;;;4.40;;
64894;SDS011;51588;53.702;10.208;2023-05-07T02:10:15;4.97;;;4.20;;
64894;SDS011;51588;53.702;10.208;2023-05-07T02:12:41;4.33;;;3.77;;
64894;SDS011;51588;53.702;10.208;2023-05-07T02:15:10;4.50;;;4.10;;
64894;SDS011;51588;53.702;10.208;2023-05-07T02:17:39;5.23;;;4.50;;
64894;SDS011;51588;53.702;10.208;2023-05-07T02:20:06;4.43;;;3.93;;
64894;SDS011;51588;53.702;10.208;2023-05-07T02:22:38;4.80;;;4.30;;
64894;SDS011;51588;53.702;10.208;2023-05-07T02:25:04;4.73;;;4.20;;
64894;SDS011;51588;53.702;10.208;2023-05-07T02:27:31;5.10;;;4.60;;
64894;SDS011;51588;53.702;10.208;2023-05-07T02:29:57;4.83;;;4.00;;
64894;SDS011;51588;53.702;10.208;2023-05-07T02:32:25;4.20;;;3.80;;
64894;SDS011;51588;53.702;10.208;2023-05-07T02:34:51;5.13;;;4.33;;
64894;SDS011;51588;53.702;10.208;2023-05-07T02:37:18;4.53;;;4.10;;
64894;SDS011;51588;53.702;10.208;2023-05-07T02:39:45;5.70;;;4.20;;
64894;SDS011;51588;53.702;10.208;2023-05-07T02:42:11;5.87;;;4.93;;
64894;SDS011;51588;53.702;10.208;2023-05-07T02:44:37;5.20;;;4.27;;
64894;SDS011;51588;53.702;10.208;2023-05-07T02:47:04;4.60;;;4.20;;
64894;SDS011;51588;53.702;10.208;2023-05-07T02:49:34;5.33;;;4.50;;
64894;SDS011;51588;53.702;10.208;2023-05-07T02:52:01;4.80;;;4.30;;
64894;SDS011;51588;53.702;10.208;2023-05-07T02:54:27;4.90;;;4.17;;
64894;SDS011;51588;53.702;10.208;2023-05-07T02:56:53;5.07;;;4.50;;
64894;SDS011;51588;53.702;10.208;2023-05-07T02:59:20;5.10;;;4.60;;
64894;SDS011;51588;53.702;10.208;2023-05-07T03:01:46;4.83;;;4.37;;
64894;SDS011;51588;53.702;10.208;2023-05-07T03:04:13;4.90;;;4.20;;
64894;SDS011;51588;53.702;10.208;2023-05-07T03:06:41;4.10;;;3.70;;
64894;SDS011;51588;53.702;10.208;2023-05-07T03:09:07;5.20;;;4.60;;
64894;SDS011;51588;53.702;10.208;2023-05-07T03:11:34;5.07;;;4.53;;
64894;SDS011;51588;53.702;10.208;2023-05-07T03:14:00;4.47;;;4.07;;
64894;SDS011;51588;53.702;10.208;2023-05-07T03:16:27;4.70;;;4.30;;
64894;SDS011;51588;53.702;10.208;2023-05-07T03:18:53;4.13;;;3.73;;
64894;SDS011;51588;53.702;10.208;2023-05-07T03:21:19;4.27;;;3.87;;
64894;SDS011;51588;53.702;10.208;2023-05-07T03:23:47;4.93;;;4.43;;
64894;SDS011;51588;53.702;10.208;2023-05-07T03:26:13;4.70;;;4.00;;
64894;SDS011;51588;53.702;10.208;2023-05-07T03:28:40;5.17;;;4.60;;
64894;SDS011;51588;53.702;10.208;2023-05-07T03:31:06;4.73;;;3.83;;
64894;SDS011;51588;53.702;10.208;2023-05-07T03:33:33;5.13;;;4.63;;
64894;SDS011;51588;53.702;10.208;2023-05-07T03:36:00;4.90;;;4.23;;
64894;SDS011;51588;53.702;10.208;2023-05-07T03:38:26;4.60;;;4.20;;
64894;SDS011;51588;53.702;10.208;2023-05-07T03:40:54;5.23;;;4.63;;
64894;SDS011;51588;53.702;10.208;2023-05-07T03:43:20;4.77;;;4.20;;
64894;SDS011;51588;53.702;10.208;2023-05-07T03:45:47;4.20;;;3.80;;
64894;SDS011;51588;53.702;10.208;2023-05-07T03:48:13;4.53;;;4.00;;
64894;SDS011;51588;53.702;10.208;2023-05-07T03:50:39;4.47;;;4.07;;
64894;SDS011;51588;53.702;10.208;2023-05-07T03:53:06;4.47;;;4.07;;
64894;SDS011;51588;53.702;10.208;2023-05-07T03:55:32;4.40;;;4.00;;
64894;SDS011;51588;53.702;10.208;2023-05-07T03:58:00;4.00;;;3.53;;
64894;SDS011;51588;53.702;10.208;2023-05-07T04:00:26;4.67;;;4.20;;
64894;SDS011;51588;53.702;10.208;2023-05-07T04:02:53;4.27;;;3.87;;
64894;SDS011;51588;53.702;10.208;2023-05-07T04:05:19;4.73;;;4.00;;
64894;SDS011;51588;53.702;10.208;2023-05-07T04:07:45;4.67;;;3.83;;
64894;SDS011;51588;53.702;10.208;2023-05-07T04:10:12;4.60;;;4.00;;
64894;SDS011;51588;53.702;10.208;2023-05-07T04:12:38;4.90;;;4.13;;
64894;SDS011;51588;53.702;10.208;2023-05-07T04:15:07;4.43;;;4.03;;
64894;SDS011;51588;53.702;10.208;2023-05-07T04:17:33;4.53;;;4.10;;
64894;SDS011;51588;53.702;10.208;2023-05-07T04:20:00;4.10;;;3.70;;
64894;SDS011;51588;53.702;10.208;2023-05-07T04:22:26;4.40;;;4.00;;
64894;SDS011;51588;53.702;10.208;2023-05-07T04:24:52;4.80;;;4.30;;
64894;SDS011;51588;53.702;10.208;2023-05-07T04:27:19;4.10;;;3.70;;
64894;SDS011;51588;53.702;10.208;2023-05-07T04:29:45;4.43;;;4.03;;
64894;SDS011;51588;53.702;10.208;2023-05-07T04:32:13;4.67;;;3.90;;
64894;SDS011;51588;53.702;10.208;2023-05-07T04:34:40;4.73;;;4.23;;
64894;SDS011;51588;53.702;10.208;2023-05-07T04:37:06;4.43;;;4.03;;
64894;SDS011;51588;53.702;10.208;2023-05-07T04:39:32;5.03;;;4.50;;
64894;SDS011;51588;53.702;10.208;2023-05-07T04:42:00;4.03;;;3.60;;
64894;SDS011;51588;53.702;10.208;2023-05-07T04:44:26;4.73;;;4.23;;
64894;SDS011;51588;53.702;10.208;2023-05-07T04:46:53;4.90;;;3.73;;
64894;SDS011;51588;53.702;10.208;2023-05-07T04:49:20;4.97;;;4.20;;
64894;SDS011;51588;53.702;10.208;2023-05-07T04:51:47;4.37;;;3.97;;
64894;SDS011;51588;53.702;10.208;2023-05-07T04:54:13;3.93;;;3.43;;
64894;SDS011;51588;53.702;10.208;2023-05-07T04:56:40;4.10;;;3.70;;
64894;SDS011;51588;53.702;10.208;2023-05-07T04:59:06;4.33;;;3.90;;
64894;SDS011;51588;53.702;10.208;2023-05-07T05:01:32;4.80;;;4.30;;
64894;SDS011;51588;53.702;10.208;2023-05-07T05:03:59;4.20;;;3.80;;
64894;SDS011;51588;53.702;10.208;2023-05-07T05:06:28;4.20;;;3.80;;
64894;SDS011;51588;53.702;10.208;2023-05-07T05:08:55;4.33;;;3.83;;
64894;SDS011;51588;53.702;10.208;2023-05-07T05:11:22;4.40;;;3.90;;
64894;SDS011;51588;53.702;10.208;2023-05-07T05:13:48;4.40;;;3.77;;
64894;SDS011;51588;53.702;10.208;2023-05-07T05:16:15;4.03;;;3.63;;
64894;SDS011;51588;53.702;10.208;2023-05-07T05:18:41;4.30;;;3.80;;
64894;SDS011;51588;53.702;10.208;2023-05-07T05:21:08;3.87;;;3.57;;
64894;SDS011;51588;53.702;10.208;2023-05-07T05:23:35;4.47;;;4.07;;
64894;SDS011;51588;53.702;10.208;2023-05-07T05:26:02;4.00;;;3.60;;
64894;SDS011;51588;53.702;10.208;2023-05-07T05:28:28;4.83;;;4.33;;
64894;SDS011;51588;53.702;10.208;2023-05-07T05:30:54;4.30;;;3.90;;
64894;SDS011;51588;53.702;10.208;2023-05-07T05:33:21;3.73;;;3.43;;
64894;SDS011;51588;53.702;10.208;2023-05-07T05:35:49;4.53;;;3.70;;
64894;SDS011;51588;53.702;10.208;2023-05-07T05:38:15;4.30;;;3.90;;
64894;SDS011;51588;53.702;10.208;2023-05-07T05:40:43;4.10;;;3.70;;
64894;SDS011;51588;53.702;10.208;2023-05-07T05:43:09;4.30;;;3.90;;
64894;SDS011;51588;53.702;10.208;2023-05-07T05:45:36;4.00;;;3.57;;
64894;SDS011;51588;53.702;10.208;2023-05-07T05:48:02;3.97;;;3.57;;
64894;SDS011;51588;53.702;10.208;2023-05-07T05:50:29;4.27;;;3.37;;
64894;SDS011;51588;53.702;10.208;2023-05-07T05:52:55;4.50;;;3.87;;
64894;SDS011;51588;53.702;10.208;2023-05-07T05:55:22;3.90;;;3.53;;
64894;SDS011;51588;53.702;10.208;2023-05-07T05:57:50;3.73;;;3.37;;
64894;SDS011;51588;53.702;10.208;2023-05-07T06:00:16;4.20;;;3.63;;
64894;SDS011;51588;53.702;10.208;2023-05-07T06:02:43;4.43;;;3.47;;
64894;SDS011;51588;53.702;10.208;2023-05-07T06:05:10;4.20;;;3.80;;
64894;SDS011;51588;53.702;10.208;2023-05-07T06:07:36;3.87;;;3.53;;
64894;SDS011;51588;53.702;10.208;2023-05-07T06:10:02;3.37;;;3.07;;
64894;SDS011;51588;53.702;10.208;2023-05-07T06:12:29;3.80;;;3.27;;
64894;SDS011;51588;53.702;10.208;2023-05-07T06:14:57;3.50;;;3.20;;
64894;SDS011;51588;53.702;10.208;2023-05-07T06:17:23;4.20;;;3.73;;
64894;SDS011;51588;53.702;10.208;2023-05-07T06:19:49;4.27;;;3.50;;
64894;SDS011;51588;53.702;10.208;2023-05-07T06:22:16;3.43;;;3.10;;
64894;SDS011;51588;53.702;10.208;2023-05-07T06:24:42;4.60;;;3.53;;
64894;SDS011;51588;53.702;10.208;2023-05-07T06:27:08;4.80;;;3.30;;
64894;SDS011;51588;53.702;10.208;2023-05-07T06:29:35;3.90;;;3.57;;
64894;SDS011;51588;53.702;10.208;2023-05-07T06:32:09;4.00;;;3.60;;
64894;SDS011;51588;53.702;10.208;2023-05-07T06:34:35;3.53;;;3.23;;
64894;SDS011;51588;53.702;10.208;2023-05-07T06:37:02;3.97;;;3.57;;
64894;SDS011;51588;53.702;10.208;2023-05-07T06:39:28;4.07;;;3.70;;
64894;SDS011;51588;53.702;10.208;2023-05-07T06:41:54;3.30;;;3.00;;
64894;SDS011;51588;53.702;10.208;2023-05-07T06:44:21;3.60;;;3.30;;
64894;SDS011;51588;53.702;10.208;2023-05-07T06:46:47;3.40;;;3.10;;
64894;SDS011;51588;53.702;10.208;2023-05-07T06:49:15;3.50;;;3.17;;
64894;SDS011;51588;53.702;10.208;2023-05-07T06:51:41;3.70;;;3.40;;
64894;SDS011;51588;53.702;10.208;2023-05-07T06:54:08;3.60;;;3.20;;
64894;SDS011;51588;53.702;10.208;2023-05-07T06:56:34;3.63;;;3.33;;
64894;SDS011;51588;53.702;10.208;2023-05-07T06:59:01;3.43;;;3.13;;
64894;SDS011;51588;53.702;10.208;2023-05-07T07:01:28;3.77;;;3.37;;
64894;SDS011;51588;53.702;10.208;2023-05-07T07:03:54;3.43;;;3.13;;
64894;SDS011;51588;53.702;10.208;2023-05-07T07:06:22;3.80;;;3.50;;
64894;SDS011;51588;53.702;10.208;2023-05-07T07:08:49;3.63;;;3.30;;
64894;SDS011;51588;53.702;10.208;2023-05-07T07:11:15;3.43;;;3.13;;
64894;SDS011;51588;53.702;10.208;2023-05-07T07:13:41;3.77;;;3.37;;
64894;SDS011;51588;53.702;10.208;2023-05-07T07:16:08;3.30;;;3.00;;
64894;SDS011;51588;53.702;10.208;2023-05-07T07:18:34;3.57;;;3.20;;
64894;SDS011;51588;53.702;10.208;2023-05-07T07:21:01;3.73;;;3.40;;
64894;SDS011;51588;53.702;10.208;2023-05-07T07:23:29;3.47;;;3.00;;
64894;SDS011;51588;53.702;10.208;2023-05-07T07:25:55;3.47;;;3.17;;
64894;SDS011;51588;53.702;10.208;2023-05-07T07:28:21;2.93;;;2.73;;
64894;SDS011;51588;53.702;10.208;2023-05-07T07:30:48;3.40;;;3.10;;
64894;SDS011;51588;53.702;10.208;2023-05-07T07:33:14;3.53;;;3.23;;
64894;SDS011;51588;53.702;10.208;2023-05-07T07:35:41;3.60;;;3.10;;
64894;SDS011;51588;53.702;10.208;2023-05-07T07:38:07;3.10;;;2.90;;
64894;SDS011;51588;53.702;10.208;2023-05-07T07:40:35;3.67;;;3.30;;
64894;SDS011;51588;53.702;10.208;2023-05-07T07:43:01;4.47;;;3.43;;
64894;SDS011;51588;53.702;10.208;2023-05-07T07:45:28;3.30;;;3.00;;
64894;SDS011;51588;53.702;10.208;2023-05-07T07:47:54;3.47;;;3.17;;
64894;SDS011;51588;53.702;10.208;2023-05-07T07:50:21;3.43;;;3.03;;
64894;SDS011;51588;53.702;10.208;2023-05-07T07:52:47;3.90;;;3.37;;
64894;SDS011;51588;53.702;10.208;2023-05-07T07:55:14;3.20;;;2.90;;
64894;SDS011;51588;53.702;10.208;2023-05-07T07:57:44;4.20;;;3.60;;
64894;SDS011;51588;53.702;10.208;2023-05-07T08:00:11;3.53;;;2.87;;
64894;SDS011;51588;53.702;10.208;2023-05-07T08:02:37;3.17;;;2.87;;
64894;SDS011;51588;53.702;10.208;2023-05-07T08:05:04;3.90;;;3.10;;
64894;SDS011;51588;53.702;10.208;2023-05-07T08:07:30;3.30;;;3.00;;
64894;SDS011;51588;53.702;10.208;2023-05-07T08:09:56;3.70;;;3.40;;
64894;SDS011;51588;53.702;10.208;2023-05-07T08:12:23;3.80;;;3.27;;
64894;SDS011;51588;53.702;10.208;2023-05-07T08:14:51;3.47;;;3.17;;
64894;SDS011;51588;53.702;10.208;2023-05-07T08:17:17;3.47;;;3.07;;
64894;SDS011;51588;53.702;10.208;2023-05-07T08:19:43;3.77;;;3.37;;
64894;SDS011;51588;53.702;10.208;2023-05-07T08:22:10;3.77;;;3.27;;
64894;SDS011;51588;53.702;10.208;2023-05-07T08:24:37;3.77;;;3.40;;
64894;SDS011;51588;53.702;10.208;2023-05-07T08:27:03;3.17;;;2.87;;
64894;SDS011;51588;53.702;10.208;2023-05-07T08:29:29;3.17;;;2.87;;
64894;SDS011;51588;53.702;10.208;2023-05-07T08:31:57;3.30;;;3.00;;
64894;SDS011;51588;53.702;10.208;2023-05-07T08:34:23;3.30;;;2.90;;
64894;SDS011;51588;53.702;10.208;2023-05-07T08:36:50;3.00;;;2.77;;
64894;SDS011;51588;53.702;10.208;2023-05-07T08:39:16;2.83;;;2.63;;
64894;SDS011;51588;53.702;10.208;2023-05-07T08:41:43;3.90;;;3.10;;
64894;SDS011;51588;53.702;10.208;2023-05-07T08:44:11;3.83;;;2.83;;
64894;SDS011;51588;53.702;10.208;2023-05-07T08:46:38;3.30;;;3.00;;
64894;SDS011;51588;53.702;10.208;2023-05-07T08:49:06;3.27;;;2.97;;
64894;SDS011;51588;53.702;10.208;2023-05-07T08:51:33;3.00;;;2.80;;
64894;SDS011;51588;53.702;10.208;2023-05-07T08:54:00;3.43;;;2.90;;
64894;SDS011;51588;53.702;10.208;2023-05-07T08:56:27;2.90;;;2.70;;
64894;SDS011;51588;53.702;10.208;2023-05-07T08:58:53;3.37;;;3.00;;
64894;SDS011;51588;53.702;10.208;2023-05-07T09:01:21;2.80;;;2.50;;
64894;SDS011;51588;53.702;10.208;2023-05-07T09:03:49;3.60;;;2.77;;
64894;SDS011;51588;53.702;10.208;2023-05-07T09:06:17;3.20;;;2.90;;
64894;SDS011;51588;53.702;10.208;2023-05-07T09:08:44;3.30;;;3.00;;
64894;SDS011;51588;53.702;10.208;2023-05-07T09:11:15;3.27;;;2.97;;
64894;SDS011;51588;53.702;10.208;2023-05-07T09:13:42;3.70;;;3.27;;
64894;SDS011;51588;53.702;10.208;2023-05-07T09:16:11;3.10;;;2.80;;
64894;SDS011;51588;53.702;10.208;2023-05-07T09:18:41;3.03;;;2.80;;
64894;SDS011;51588;53.702;10.208;2023-05-07T09:21:09;3.70;;;3.40;;
64894;SDS011;51588;53.702;10.208;2023-05-07T09:23:37;4.10;;;3.10;;
64894;SDS011;51588;53.702;10.208;2023-05-07T09:26:03;3.33;;;3.03;;
64894;SDS011;51588;53.702;10.208;2023-05-07T09:28:32;3.00;;;2.73;;
64894;SDS011;51588;53.702;10.208;2023-05-07T09:30:58;3.37;;;2.57;;
64894;SDS011;51588;53.702;10.208;2023-05-07T09:33:33;2.90;;;2.70;;
64894;SDS011;51588;53.702;10.208;2023-05-07T09:36:01;5.70;;;3.00;;
64894;SDS011;51588;53.702;10.208;2023-05-07T09:38:33;2.97;;;2.67;;
64894;SDS011;51588;53.702;10.208;2023-05-07T09:41:04;2.83;;;2.63;;
64894;SDS011;51588;53.702;10.208;2023-05-07T09:43:31;3.10;;;2.80;;
64894;SDS011;51588;53.702;10.208;2023-05-07T09:46:02;2.63;;;2.40;;
64894;SDS011;51588;53.702;10.208;2023-05-07T09:48:32;3.80;;;3.20;;
64894;SDS011;51588;53.702;10.208;2023-05-07T09:51:01;2.83;;;2.53;;
64894;SDS011;51588;53.702;10.208;2023-05-07T09:53:29;2.90;;;2.60;;
64894;SDS011;51588;53.702;10.208;2023-05-07T09:55:55;3.40;;;2.77;;
64894;SDS011;51588;53.702;10.208;2023-05-07T09:58:24;3.07;;;2.70;;
64894;SDS011;51588;53.702;10.208;2023-05-07T10:00:52;2.50;;;2.30;;
64894;SDS011;51588;53.702;10.208;2023-05-07T10:03:18;3.30;;;3.00;;
64894;SDS011;51588;53.702;10.208;2023-05-07T10:05:45;3.43;;;2.40;;
64894;SDS011;51588;53.702;10.208;2023-05-07T10:08:12;2.93;;;2.60;;
64894;SDS011;51588;53.702;10.208;2023-05-07T10:10:41;3.47;;;3.17;;
64894;SDS011;51588;53.702;10.208;2023-05-07T10:13:08;3.00;;;2.70;;
64894;SDS011;51588;53.702;10.208;2023-05-07T10:15:37;2.93;;;2.63;;
64894;SDS011;51588;53.702;10.208;2023-05-07T10:18:04;2.73;;;2.33;;
64894;SDS011;51588;53.702;10.208;2023-05-07T10:20:32;2.70;;;2.23;;
64894;SDS011;51588;53.702;10.208;2023-05-07T10:22:59;2.80;;;2.60;;
64894;SDS011;51588;53.702;10.208;2023-05-07T10:25:29;2.90;;;2.70;;
64894;SDS011;51588;53.702;10.208;2023-05-07T10:27:57;3.20;;;2.53;;
64894;SDS011;51588;53.702;10.208;2023-05-07T10:30:26;3.10;;;2.80;;
64894;SDS011;51588;53.702;10.208;2023-05-07T10:33:01;2.80;;;2.60;;
64894;SDS011;51588;53.702;10.208;2023-05-07T10:35:31;2.73;;;2.53;;
64894;SDS011;51588;53.702;10.208;2023-05-07T10:37:58;2.73;;;2.53;;
64894;SDS011;51588;53.702;10.208;2023-05-07T10:40:24;3.10;;;2.70;;
64894;SDS011;51588;53.702;10.208;2023-05-07T10:42:55;2.90;;;2.70;;
64894;SDS011;51588;53.702;10.208;2023-05-07T10:45:22;3.20;;;2.67;;
64894;SDS011;51588;53.702;10.208;2023-05-07T10:48:09;2.70;;;2.50;;
64894;SDS011;51588;53.702;10.208;2023-05-07T10:50:35;3.00;;;2.70;;
64894;SDS011;51588;53.702;10.208;2023-05-07T10:53:21;3.63;;;2.63;;
64894;SDS011;51588;53.702;10.208;2023-05-07T10:55:51;2.67;;;2.47;;
64894;SDS011;51588;53.702;10.208;2023-05-07T10:58:24;2.53;;;2.33;;
64894;SDS011;51588;53.702;10.208;2023-05-07T11:00:55;3.17;;;2.67;;
64894;SDS011;51588;53.702;10.208;2023-05-07T11:03:22;3.17;;;2.60;;
64894;SDS011;51588;53.702;10.208;2023-05-07T11:06:07;2.67;;;2.47;;
64894;SDS011;51588;53.702;10.208;2023-05-07T11:11:16;2.50;;;2.30;;
64894;SDS011;51588;53.702;10.208;2023-05-07T11:13:42;2.80;;;2.57;;
64894;SDS011;51588;53.702;10.208;2023-05-07T11:16:16;3.07;;;2.47;;
64894;SDS011;51588;53.702;10.208;2023-05-07T11:18:47;3.13;;;2.70;;
64894;SDS011;51588;53.702;10.208;2023-05-07T11:23:57;3.03;;;2.73;;
64894;SDS011;51588;53.702;10.208;2023-05-07T11:26:27;2.83;;;2.63;;
64894;SDS011;51588;53.702;10.208;2023-05-07T11:28:54;2.60;;;2.40;;
64894;SDS011;51588;53.702;10.208;2023-05-07T11:31:22;2.47;;;2.20;;
64894;SDS011;51588;53.702;10.208;2023-05-07T11:33:51;2.47;;;2.27;;
64894;SDS011;51588;53.702;10.208;2023-05-07T11:36:18;2.30;;;2.10;;
64894;SDS011;51588;53.702;10.208;2023-05-07T11:38:44;2.50;;;2.30;;
64894;SDS011;51588;53.702;10.208;2023-05-07T11:41:11;2.60;;;2.40;;
64894;SDS011;51588;53.702;10.208;2023-05-07T11:43:38;2.40;;;2.20;;
64894;SDS011;51588;53.702;10.208;2023-05-07T11:46:05;2.83;;;2.63;;
64894;SDS011;51588;53.702;10.208;2023-05-07T11:48:32;2.10;;;2.00;;
64894;SDS011;51588;53.702;10.208;2023-05-07T11:51:01;2.70;;;2.50;;
64894;SDS011;51588;53.702;10.208;2023-05-07T11:53:28;3.10;;;2.30;;
64894;SDS011;51588;53.702;10.208;2023-05-07T11:56:00;2.40;;;2.20;;
64894;SDS011;51588;53.702;10.208;2023-05-07T11:58:27;2.60;;;2.40;;
64894;SDS011;51588;53.702;10.208;2023-05-07T12:00:53;2.50;;;2.30;;
64894;SDS011;51588;53.702;10.208;2023-05-07T12:03:20;2.50;;;2.27;;
64894;SDS011;51588;53.702;10.208;2023-05-07T12:05:47;2.70;;;2.50;;
64894;SDS011;51588;53.702;10.208;2023-05-07T12:08:15;2.93;;;2.57;;
64894;SDS011;51588;53.702;10.208;2023-05-07T12:10:41;2.73;;;2.53;;
64894;SDS011;51588;53.702;10.208;2023-05-07T12:13:13;2.63;;;2.43;;
64894;SDS011;51588;53.702;10.208;2023-05-07T12:15:40;2.40;;;2.20;;
64894;SDS011;51588;53.702;10.208;2023-05-07T12:18:06;2.73;;;2.47;;
64894;SDS011;51588;53.702;10.208;2023-05-07T12:20:33;2.40;;;2.20;;
64894;SDS011;51588;53.702;10.208;2023-05-07T12:23:00;2.60;;;2.23;;
64894;SDS011;51588;53.702;10.208;2023-05-07T12:25:30;2.47;;;2.27;;
64894;SDS011;51588;53.702;10.208;2023-05-07T12:27:57;3.10;;;2.40;;
64894;SDS011;51588;53.702;10.208;2023-05-07T12:30:24;2.33;;;2.13;;
64894;SDS011;51588;53.702;10.208;2023-05-07T12:32:52;2.40;;;2.20;;
64894;SDS011;51588;53.702;10.208;2023-05-07T12:35:25;3.10;;;2.40;;
64894;SDS011;51588;53.702;10.208;2023-05-07T12:37:54;4.70;;;2.30;;
64894;SDS011;51588;53.702;10.208;2023-05-07T12:40:20;2.60;;;2.40;;
64894;SDS011;51588;53.702;10.208;2023-05-07T12:42:48;2.50;;;2.20;;
64894;SDS011;51588;53.702;10.208;2023-05-07T12:45:19;2.63;;;2.33;;
64894;SDS011;51588;53.702;10.208;2023-05-07T12:47:45;2.50;;;2.30;;
64894;SDS011;51588;53.702;10.208;2023-05-07T12:50:12;2.30;;;2.10;;
64894;SDS011;51588;53.702;10.208;2023-05-07T12:52:39;2.30;;;2.03;;
64894;SDS011;51588;53.702;10.208;2023-05-07T12:55:05;2.23;;;2.03;;
64894;SDS011;51588;53.702;10.208;2023-05-07T12:57:37;2.10;;;2.00;;
64894;SDS011;51588;53.702;10.208;2023-05-07T13:00:05;2.30;;;2.10;;
64894;SDS011;51588;53.702;10.208;2023-05-07T13:02:32;2.60;;;2.40;;
64894;SDS011;51588;53.702;10.208;2023-05-07T13:04:58;2.30;;;2.20;;
64894;SDS011;51588;53.702;10.208;2023-05-07T13:07:25;3.93;;;2.10;;
64894;SDS011;51588;53.702;10.208;2023-05-07T13:09:51;2.30;;;2.10;;
64894;SDS011;51588;53.702;10.208;2023-05-07T13:12:17;2.17;;;1.97;;
64894;SDS011;51588;53.702;10.208;2023-05-07T13:14:44;2.20;;;2.00;;
64894;SDS011;51588;53.702;10.208;2023-05-07T13:17:11;3.20;;;2.20;;
64894;SDS011;51588;53.702;10.208;2023-05-07T13:19:38;2.30;;;2.10;;
64894;SDS011;51588;53.702;10.208;2023-05-07T13:22:04;2.23;;;2.00;;
64894;SDS011;51588;53.702;10.208;2023-05-07T13:24:31;2.23;;;2.03;;
64894;SDS011;51588;53.702;10.208;2023-05-07T13:26:57;2.50;;;2.30;;
64894;SDS011;51588;53.702;10.208;2023-05-07T13:29:24;3.40;;;2.20;;
64894;SDS011;51588;53.702;10.208;2023-05-07T13:31:55;2.50;;;2.00;;
64894;SDS011;51588;53.702;10.208;2023-05-07T13:34:22;2.07;;;1.87;;
64894;SDS011;51588;53.702;10.208;2023-05-07T13:36:49;2.50;;;2.00;;
64894;SDS011;51588;53.702;10.208;2023-05-07T13:39:15;2.53;;;1.93;;
64894;SDS011;51588;53.702;10.208;2023-05-07T13:41:41;2.30;;;2.10;;
64894;SDS011;51588;53.702;10.208;2023-05-07T13:44:08;2.40;;;2.20;;
64894;SDS011;51588;53.702;10.208;2023-05-07T13:46:34;2.40;;;2.20;;
64894;SDS011;51588;53.702;10.208;2023-05-07T13:49:01;2.33;;;2.13;;
64894;SDS011;51588;53.702;10.208;2023-05-07T13:51:29;2.10;;;1.90;;
64894;SDS011;51588;53.702;10.208;2023-05-07T13:53:55;2.17;;;1.80;;
64894;SDS011;51588;53.702;10.208;2023-05-07T13:56:23;1.90;;;1.80;;
64894;SDS011;51588;53.702;10.208;2023-05-07T13:58:49;2.30;;;2.10;;
64894;SDS011;51588;53.702;10.208;2023-05-07T14:01:16;1.83;;;1.73;;
64894;SDS011;51588;53.702;10.208;2023-05-07T14:03:42;2.13;;;1.93;;
64894;SDS011;51588;53.702;10.208;2023-05-07T14:06:09;2.43;;;2.23;;
64894;SDS011;51588;53.702;10.208;2023-05-07T14:08:36;2.10;;;1.90;;
64894;SDS011;51588;53.702;10.208;2023-05-07T14:11:03;2.10;;;2.00;;
64894;SDS011;51588;53.702;10.208;2023-05-07T14:13:29;2.67;;;2.00;;
64894;SDS011;51588;53.702;10.208;2023-05-07T14:15:55;2.50;;;1.90;;
64894;SDS011;51588;53.702;10.208;2023-05-07T14:18:22;2.00;;;1.80;;
64894;SDS011;51588;53.702;10.208;2023-05-07T14:20:48;2.00;;;1.87;;
64894;SDS011;51588;53.702;10.208;2023-05-07T14:23:15;4.63;;;2.10;;
64894;SDS011;51588;53.702;10.208;2023-05-07T14:25:44;3.30;;;2.10;;
64894;SDS011;51588;53.702;10.208;2023-05-07T14:28:12;1.97;;;1.87;;
64894;SDS011;51588;53.702;10.208;2023-05-07T14:30:39;2.20;;;2.03;;
64894;SDS011;51588;53.702;10.208;2023-05-07T14:33:05;1.70;;;1.60;;
64894;SDS011;51588;53.702;10.208;2023-05-07T14:35:31;1.80;;;1.70;;
64894;SDS011;51588;53.702;10.208;2023-05-07T14:37:58;1.90;;;1.80;;